sensor_id;sensor_type;location;lat;lon;timestamp;P1;durP1;ratioP1;P2;durP2;ratioP2
71869;SDS011;59739;47.696;11.746;2022-10-26T00:01:02;1.65;;;1.33;;
71869;SDS011;59739;47.696;11.746;2022-10-26T00:03:40;1.58;;;1.13;;
71869;SDS011;59739;47.696;11.746;2022-10-26T00:06:12;1.70;;;1.00;;
71869;SDS011;59739;47.696;11.746;2022-10-26T00:08:50;2.25;;;1.35;;
71869;SDS011;59739;47.696;11.746;2022-10-26T00:11:17;2.60;;;1.02;;
71869;SDS011;59739;47.696;11.746;2022-10-26T00:13:44;2.85;;;1.10;;
71869;SDS011;59739;47.696;11.746;2022-10-26T00:16:16;1.58;;;1.40;;
71869;SDS011;59739;47.696;11.746;2022-10-26T00:18:50;1.67;;;1.27;;
71869;SDS011;59739;47.696;11.746;2022-10-26T00:21:17;1.75;;;1.23;;
71869;SDS011;59739;47.696;11.746;2022-10-26T00:23:43;3.90;;;1.27;;
71869;SDS011;59739;47.696;11.746;2022-10-26T00:26:12;2.58;;;1.35;;
71869;SDS011;59739;47.696;11.746;2022-10-26T00:28:38;3.00;;;1.35;;
71869;SDS011;59739;47.696;11.746;2022-10-26T00:31:08;2.92;;;1.30;;
71869;SDS011;59739;47.696;11.746;2022-10-26T00:33:38;2.40;;;1.30;;
71869;SDS011;59739;47.696;11.746;2022-10-26T00:36:04;1.92;;;1.33;;
71869;SDS011;59739;47.696;11.746;2022-10-26T00:38:33;2.40;;;1.65;;
71869;SDS011;59739;47.696;11.746;2022-10-26T00:40:59;2.83;;;1.17;;
71869;SDS011;59739;47.696;11.746;2022-10-26T00:45:54;1.50;;;1.40;;
71869;SDS011;59739;47.696;11.746;2022-10-26T00:48:26;3.05;;;1.35;;
71869;SDS011;59739;47.696;11.746;2022-10-26T00:50:57;1.20;;;1.10;;
71869;SDS011;59739;47.696;11.746;2022-10-26T00:53:25;2.55;;;1.40;;
71869;SDS011;59739;47.696;11.746;2022-10-26T00:55:51;2.28;;;1.17;;
71869;SDS011;59739;47.696;11.746;2022-10-26T00:58:18;1.92;;;1.30;;
71869;SDS011;59739;47.696;11.746;2022-10-26T01:00:45;2.42;;;1.30;;
71869;SDS011;59739;47.696;11.746;2022-10-26T01:03:12;1.55;;;1.45;;
71869;SDS011;59739;47.696;11.746;2022-10-26T01:05:41;2.92;;;1.27;;
71869;SDS011;59739;47.696;11.746;2022-10-26T01:08:10;2.00;;;1.25;;
71869;SDS011;59739;47.696;11.746;2022-10-26T01:10:38;1.95;;;1.20;;
71869;SDS011;59739;47.696;11.746;2022-10-26T01:13:05;3.58;;;1.35;;
71869;SDS011;59739;47.696;11.746;2022-10-26T01:20:54;2.08;;;1.23;;
71869;SDS011;59739;47.696;11.746;2022-10-26T01:35:53;2.80;;;1.10;;
71869;SDS011;59739;47.696;11.746;2022-10-26T01:38:33;1.60;;;1.17;;
71869;SDS011;59739;47.696;11.746;2022-10-26T01:41:27;2.45;;;1.08;;
71869;SDS011;59739;47.696;11.746;2022-10-26T01:44:02;1.45;;;0.93;;
71869;SDS011;59739;47.696;11.746;2022-10-26T01:46:36;2.97;;;1.25;;
71869;SDS011;59739;47.696;11.746;2022-10-26T01:49:07;2.15;;;1.00;;
71869;SDS011;59739;47.696;11.746;2022-10-26T01:51:39;2.88;;;1.17;;
71869;SDS011;59739;47.696;11.746;2022-10-26T01:54:08;2.95;;;1.13;;
71869;SDS011;59739;47.696;11.746;2022-10-26T01:56:41;2.65;;;1.02;;
71869;SDS011;59739;47.696;11.746;2022-10-26T02:13:09;1.55;;;0.90;;
71869;SDS011;59739;47.696;11.746;2022-10-26T02:21:51;1.48;;;0.90;;
71869;SDS011;59739;47.696;11.746;2022-10-26T02:24:27;2.03;;;0.95;;
71869;SDS011;59739;47.696;11.746;2022-10-26T02:26:55;2.10;;;1.10;;
71869;SDS011;59739;47.696;11.746;2022-10-26T02:29:22;1.00;;;0.85;;
71869;SDS011;59739;47.696;11.746;2022-10-26T02:31:49;1.73;;;0.73;;
71869;SDS011;59739;47.696;11.746;2022-10-26T02:34:17;1.90;;;0.88;;
71869;SDS011;59739;47.696;11.746;2022-10-26T02:36:49;2.20;;;0.80;;
71869;SDS011;59739;47.696;11.746;2022-10-26T02:39:17;1.52;;;1.00;;
71869;SDS011;59739;47.696;11.746;2022-10-26T02:41:44;3.20;;;0.82;;
71869;SDS011;59739;47.696;11.746;2022-10-26T02:44:33;1.45;;;1.10;;
71869;SDS011;59739;47.696;11.746;2022-10-26T02:47:31;1.73;;;1.27;;
71869;SDS011;59739;47.696;11.746;2022-10-26T02:49:57;1.85;;;1.20;;
71869;SDS011;59739;47.696;11.746;2022-10-26T02:52:29;2.08;;;1.00;;
71869;SDS011;59739;47.696;11.746;2022-10-26T02:58:27;1.65;;;1.00;;
71869;SDS011;59739;47.696;11.746;2022-10-26T03:00:56;1.80;;;1.08;;
71869;SDS011;59739;47.696;11.746;2022-10-26T03:03:23;3.47;;;1.30;;
71869;SDS011;59739;47.696;11.746;2022-10-26T03:05:49;1.35;;;1.10;;
71869;SDS011;59739;47.696;11.746;2022-10-26T03:08:15;1.25;;;1.15;;
71869;SDS011;59739;47.696;11.746;2022-10-26T03:10:42;2.22;;;1.50;;
71869;SDS011;59739;47.696;11.746;2022-10-26T03:13:10;2.17;;;1.10;;
71869;SDS011;59739;47.696;11.746;2022-10-26T03:15:37;1.55;;;1.20;;
71869;SDS011;59739;47.696;11.746;2022-10-26T03:18:04;1.67;;;0.90;;
71869;SDS011;59739;47.696;11.746;2022-10-26T03:20:31;5.55;;;1.00;;
71869;SDS011;59739;47.696;11.746;2022-10-26T03:22:57;3.88;;;1.27;;
71869;SDS011;59739;47.696;11.746;2022-10-26T03:25:24;3.13;;;1.15;;
71869;SDS011;59739;47.696;11.746;2022-10-26T03:28:00;1.65;;;0.98;;
71869;SDS011;59739;47.696;11.746;2022-10-26T03:30:28;1.10;;;1.00;;
71869;SDS011;59739;47.696;11.746;2022-10-26T03:32:55;1.90;;;1.15;;
71869;SDS011;59739;47.696;11.746;2022-10-26T03:35:22;1.23;;;1.00;;
71869;SDS011;59739;47.696;11.746;2022-10-26T03:37:48;2.88;;;1.20;;
71869;SDS011;59739;47.696;11.746;2022-10-26T03:40:14;1.95;;;0.90;;
71869;SDS011;59739;47.696;11.746;2022-10-26T03:42:40;1.65;;;1.10;;
71869;SDS011;59739;47.696;11.746;2022-10-26T03:45:07;3.40;;;1.20;;
71869;SDS011;59739;47.696;11.746;2022-10-26T03:47:34;2.70;;;1.02;;
71869;SDS011;59739;47.696;11.746;2022-10-26T03:50:14;1.73;;;1.20;;
71869;SDS011;59739;47.696;11.746;2022-10-26T03:52:42;1.60;;;0.93;;
71869;SDS011;59739;47.696;11.746;2022-10-26T03:55:10;2.60;;;1.42;;
71869;SDS011;59739;47.696;11.746;2022-10-26T03:57:42;1.65;;;0.95;;
71869;SDS011;59739;47.696;11.746;2022-10-26T04:00:10;1.80;;;1.27;;
71869;SDS011;59739;47.696;11.746;2022-10-26T04:05:17;2.55;;;1.30;;
71869;SDS011;59739;47.696;11.746;2022-10-26T04:07:43;1.85;;;1.10;;
71869;SDS011;59739;47.696;11.746;2022-10-26T04:10:15;2.88;;;1.10;;
71869;SDS011;59739;47.696;11.746;2022-10-26T04:12:41;1.05;;;0.90;;
71869;SDS011;59739;47.696;11.746;2022-10-26T04:15:09;3.50;;;1.15;;
71869;SDS011;59739;47.696;11.746;2022-10-26T04:17:37;3.47;;;1.10;;
71869;SDS011;59739;47.696;11.746;2022-10-26T04:20:06;1.25;;;1.05;;
71869;SDS011;59739;47.696;11.746;2022-10-26T04:22:34;1.42;;;1.33;;
71869;SDS011;59739;47.696;11.746;2022-10-26T04:25:01;1.40;;;1.20;;
71869;SDS011;59739;47.696;11.746;2022-10-26T04:27:28;1.30;;;1.20;;
71869;SDS011;59739;47.696;11.746;2022-10-26T04:29:54;1.63;;;1.15;;
71869;SDS011;59739;47.696;11.746;2022-10-26T04:32:20;2.95;;;1.40;;
71869;SDS011;59739;47.696;11.746;2022-10-26T04:34:46;1.70;;;1.02;;
71869;SDS011;59739;47.696;11.746;2022-10-26T04:37:12;1.40;;;1.20;;
71869;SDS011;59739;47.696;11.746;2022-10-26T04:39:38;2.05;;;1.40;;
71869;SDS011;59739;47.696;11.746;2022-10-26T04:42:04;1.70;;;1.08;;
71869;SDS011;59739;47.696;11.746;2022-10-26T04:44:31;2.05;;;1.67;;
71869;SDS011;59739;47.696;11.746;2022-10-26T04:46:58;1.58;;;1.00;;
71869;SDS011;59739;47.696;11.746;2022-10-26T04:49:24;1.20;;;1.10;;
71869;SDS011;59739;47.696;11.746;2022-10-26T04:51:49;4.03;;;1.02;;
71869;SDS011;59739;47.696;11.746;2022-10-26T04:54:15;1.50;;;1.20;;
71869;SDS011;59739;47.696;11.746;2022-10-26T04:56:41;4.22;;;1.40;;
71869;SDS011;59739;47.696;11.746;2022-10-26T04:59:07;3.75;;;1.50;;
71869;SDS011;59739;47.696;11.746;2022-10-26T05:01:33;2.65;;;1.23;;
71869;SDS011;59739;47.696;11.746;2022-10-26T05:03:59;1.15;;;1.05;;
71869;SDS011;59739;47.696;11.746;2022-10-26T05:06:29;1.55;;;1.27;;
71869;SDS011;59739;47.696;11.746;2022-10-26T05:08:55;1.30;;;1.20;;
71869;SDS011;59739;47.696;11.746;2022-10-26T05:11:21;2.30;;;1.13;;
71869;SDS011;59739;47.696;11.746;2022-10-26T05:13:46;4.30;;;1.20;;
71869;SDS011;59739;47.696;11.746;2022-10-26T05:16:13;3.47;;;1.23;;
71869;SDS011;59739;47.696;11.746;2022-10-26T05:18:42;2.70;;;1.30;;
71869;SDS011;59739;47.696;11.746;2022-10-26T05:21:08;2.25;;;1.30;;
71869;SDS011;59739;47.696;11.746;2022-10-26T05:23:34;2.75;;;1.45;;
71869;SDS011;59739;47.696;11.746;2022-10-26T05:26:03;2.85;;;1.15;;
71869;SDS011;59739;47.696;11.746;2022-10-26T05:28:29;2.25;;;1.30;;
71869;SDS011;59739;47.696;11.746;2022-10-26T05:30:57;2.70;;;1.40;;
71869;SDS011;59739;47.696;11.746;2022-10-26T05:33:23;2.13;;;1.17;;
71869;SDS011;59739;47.696;11.746;2022-10-26T05:35:52;2.45;;;1.20;;
71869;SDS011;59739;47.696;11.746;2022-10-26T05:38:19;2.85;;;1.20;;
71869;SDS011;59739;47.696;11.746;2022-10-26T05:40:49;1.85;;;1.30;;
71869;SDS011;59739;47.696;11.746;2022-10-26T05:43:17;1.70;;;1.40;;
71869;SDS011;59739;47.696;11.746;2022-10-26T05:45:44;2.58;;;1.65;;
71869;SDS011;59739;47.696;11.746;2022-10-26T05:48:11;1.60;;;1.17;;
71869;SDS011;59739;47.696;11.746;2022-10-26T05:50:37;2.42;;;1.45;;
71869;SDS011;59739;47.696;11.746;2022-10-26T05:53:03;1.40;;;1.05;;
71869;SDS011;59739;47.696;11.746;2022-10-26T05:55:29;2.15;;;1.02;;
71869;SDS011;59739;47.696;11.746;2022-10-26T05:57:59;1.55;;;0.95;;
71869;SDS011;59739;47.696;11.746;2022-10-26T06:00:26;3.50;;;1.30;;
71869;SDS011;59739;47.696;11.746;2022-10-26T06:05:55;1.77;;;1.23;;
71869;SDS011;59739;47.696;11.746;2022-10-26T06:08:27;2.03;;;1.00;;
71869;SDS011;59739;47.696;11.746;2022-10-26T06:10:54;3.15;;;1.20;;
71869;SDS011;59739;47.696;11.746;2022-10-26T06:13:26;3.55;;;1.30;;
71869;SDS011;59739;47.696;11.746;2022-10-26T06:16:02;2.60;;;1.00;;
71869;SDS011;59739;47.696;11.746;2022-10-26T06:21:53;2.75;;;1.30;;
71869;SDS011;59739;47.696;11.746;2022-10-26T06:25:02;2.03;;;1.17;;
71869;SDS011;59739;47.696;11.746;2022-10-26T06:27:47;1.88;;;1.40;;
71869;SDS011;59739;47.696;11.746;2022-10-26T06:30:24;1.67;;;1.23;;
71869;SDS011;59739;47.696;11.746;2022-10-26T06:32:51;3.03;;;1.33;;
71869;SDS011;59739;47.696;11.746;2022-10-26T06:35:29;3.97;;;1.30;;
71869;SDS011;59739;47.696;11.746;2022-10-26T06:38:12;3.50;;;1.33;;
71869;SDS011;59739;47.696;11.746;2022-10-26T06:40:45;1.25;;;1.10;;
71869;SDS011;59739;47.696;11.746;2022-10-26T06:43:22;1.42;;;1.27;;
71869;SDS011;59739;47.696;11.746;2022-10-26T06:45:57;1.15;;;1.05;;
71869;SDS011;59739;47.696;11.746;2022-10-26T06:52:00;2.60;;;1.20;;
71869;SDS011;59739;47.696;11.746;2022-10-26T06:54:48;1.17;;;1.08;;
71869;SDS011;59739;47.696;11.746;2022-10-26T06:57:28;5.03;;;1.20;;
71869;SDS011;59739;47.696;11.746;2022-10-26T07:00:01;1.10;;;0.90;;
71869;SDS011;59739;47.696;11.746;2022-10-26T07:02:39;2.33;;;0.70;;
71869;SDS011;59739;47.696;11.746;2022-10-26T07:05:05;2.95;;;1.15;;
71869;SDS011;59739;47.696;11.746;2022-10-26T07:07:36;1.95;;;0.80;;
71869;SDS011;59739;47.696;11.746;2022-10-26T07:10:07;1.40;;;0.98;;
71869;SDS011;59739;47.696;11.746;2022-10-26T07:12:40;2.42;;;1.10;;
71869;SDS011;59739;47.696;11.746;2022-10-26T07:15:07;3.97;;;1.17;;
71869;SDS011;59739;47.696;11.746;2022-10-26T07:17:51;3.80;;;1.38;;
71869;SDS011;59739;47.696;11.746;2022-10-26T07:20:18;1.33;;;0.93;;
71869;SDS011;59739;47.696;11.746;2022-10-26T07:22:52;1.35;;;1.02;;
71869;SDS011;59739;47.696;11.746;2022-10-26T07:25:20;4.93;;;1.60;;
71869;SDS011;59739;47.696;11.746;2022-10-26T07:27:47;2.15;;;1.40;;
71869;SDS011;59739;47.696;11.746;2022-10-26T07:30:13;2.55;;;1.20;;
71869;SDS011;59739;47.696;11.746;2022-10-26T07:32:39;2.20;;;1.20;;
71869;SDS011;59739;47.696;11.746;2022-10-26T07:35:05;3.40;;;1.23;;
71869;SDS011;59739;47.696;11.746;2022-10-26T07:37:32;3.63;;;0.98;;
71869;SDS011;59739;47.696;11.746;2022-10-26T07:39:58;2.75;;;1.30;;
71869;SDS011;59739;47.696;11.746;2022-10-26T07:42:24;1.10;;;0.90;;
71869;SDS011;59739;47.696;11.746;2022-10-26T07:44:51;1.80;;;0.80;;
71869;SDS011;59739;47.696;11.746;2022-10-26T07:47:17;1.42;;;1.10;;
71869;SDS011;59739;47.696;11.746;2022-10-26T07:49:43;2.15;;;1.00;;
71869;SDS011;59739;47.696;11.746;2022-10-26T07:52:09;1.70;;;1.05;;
71869;SDS011;59739;47.696;11.746;2022-10-26T07:54:35;3.85;;;0.90;;
71869;SDS011;59739;47.696;11.746;2022-10-26T07:57:01;2.90;;;1.02;;
71869;SDS011;59739;47.696;11.746;2022-10-26T07:59:27;3.83;;;1.20;;
71869;SDS011;59739;47.696;11.746;2022-10-26T08:01:53;4.18;;;1.52;;
71869;SDS011;59739;47.696;11.746;2022-10-26T08:04:19;2.85;;;1.20;;
71869;SDS011;59739;47.696;11.746;2022-10-26T08:06:45;1.92;;;0.90;;
71869;SDS011;59739;47.696;11.746;2022-10-26T08:09:12;4.70;;;1.52;;
71869;SDS011;59739;47.696;11.746;2022-10-26T08:11:38;4.18;;;1.65;;
71869;SDS011;59739;47.696;11.746;2022-10-26T08:14:04;2.00;;;1.80;;
71869;SDS011;59739;47.696;11.746;2022-10-26T08:16:31;6.18;;;1.55;;
71869;SDS011;59739;47.696;11.746;2022-10-26T08:18:58;2.58;;;1.45;;
71869;SDS011;59739;47.696;11.746;2022-10-26T08:21:25;1.40;;;1.10;;
71869;SDS011;59739;47.696;11.746;2022-10-26T08:23:51;3.15;;;1.48;;
71869;SDS011;59739;47.696;11.746;2022-10-26T08:26:18;1.73;;;1.10;;
71869;SDS011;59739;47.696;11.746;2022-10-26T08:28:47;3.10;;;1.27;;
71869;SDS011;59739;47.696;11.746;2022-10-26T08:31:14;6.55;;;1.58;;
71869;SDS011;59739;47.696;11.746;2022-10-26T08:33:40;2.15;;;1.10;;
71869;SDS011;59739;47.696;11.746;2022-10-26T08:36:06;2.45;;;1.33;;
71869;SDS011;59739;47.696;11.746;2022-10-26T08:38:32;3.85;;;1.38;;
71869;SDS011;59739;47.696;11.746;2022-10-26T08:40:58;4.50;;;1.73;;
71869;SDS011;59739;47.696;11.746;2022-10-26T08:43:36;5.88;;;1.50;;
71869;SDS011;59739;47.696;11.746;2022-10-26T08:46:14;5.20;;;1.27;;
71869;SDS011;59739;47.696;11.746;2022-10-26T08:49:03;4.90;;;3.42;;
71869;SDS011;59739;47.696;11.746;2022-10-26T08:52:10;3.08;;;1.50;;
71869;SDS011;59739;47.696;11.746;2022-10-26T08:54:42;2.45;;;1.20;;
71869;SDS011;59739;47.696;11.746;2022-10-26T08:57:19;1.90;;;1.40;;
71869;SDS011;59739;47.696;11.746;2022-10-26T09:00:00;3.58;;;1.65;;
71869;SDS011;59739;47.696;11.746;2022-10-26T09:02:35;3.15;;;1.20;;
71869;SDS011;59739;47.696;11.746;2022-10-26T09:05:01;3.25;;;1.50;;
71869;SDS011;59739;47.696;11.746;2022-10-26T09:07:39;2.08;;;1.13;;
71869;SDS011;59739;47.696;11.746;2022-10-26T09:10:40;1.10;;;0.95;;
71869;SDS011;59739;47.696;11.746;2022-10-26T09:16:27;2.42;;;1.35;;
71869;SDS011;59739;47.696;11.746;2022-10-26T09:21:41;3.28;;;1.30;;
71869;SDS011;59739;47.696;11.746;2022-10-26T09:24:32;2.33;;;1.00;;
71869;SDS011;59739;47.696;11.746;2022-10-26T09:29:58;2.45;;;1.08;;
71869;SDS011;59739;47.696;11.746;2022-10-26T09:32:39;4.85;;;1.15;;
71869;SDS011;59739;47.696;11.746;2022-10-26T09:37:43;4.68;;;2.33;;
71869;SDS011;59739;47.696;11.746;2022-10-26T09:43:11;2.03;;;1.30;;
71869;SDS011;59739;47.696;11.746;2022-10-26T09:45:57;1.10;;;0.98;;
71869;SDS011;59739;47.696;11.746;2022-10-26T09:48:32;2.35;;;1.20;;
71869;SDS011;59739;47.696;11.746;2022-10-26T09:51:05;3.53;;;1.30;;
71869;SDS011;59739;47.696;11.746;2022-10-26T09:53:31;1.52;;;1.20;;
71869;SDS011;59739;47.696;11.746;2022-10-26T09:56:07;3.03;;;1.10;;
71869;SDS011;59739;47.696;11.746;2022-10-26T09:58:39;1.20;;;1.00;;
71869;SDS011;59739;47.696;11.746;2022-10-26T10:06:44;3.17;;;0.70;;
71869;SDS011;59739;47.696;11.746;2022-10-26T10:11:52;2.67;;;0.93;;
71869;SDS011;59739;47.696;11.746;2022-10-26T10:14:23;3.35;;;0.88;;
71869;SDS011;59739;47.696;11.746;2022-10-26T10:16:56;5.30;;;1.20;;
71869;SDS011;59739;47.696;11.746;2022-10-26T10:19:26;2.78;;;1.20;;
71869;SDS011;59739;47.696;11.746;2022-10-26T10:22:00;1.25;;;0.98;;
71869;SDS011;59739;47.696;11.746;2022-10-26T10:24:53;3.20;;;0.95;;
71869;SDS011;59739;47.696;11.746;2022-10-26T10:27:25;2.67;;;1.05;;
71869;SDS011;59739;47.696;11.746;2022-10-26T10:29:55;2.60;;;0.70;;
71869;SDS011;59739;47.696;11.746;2022-10-26T10:34:58;1.58;;;1.23;;
71869;SDS011;59739;47.696;11.746;2022-10-26T10:37:32;1.63;;;1.23;;
71869;SDS011;59739;47.696;11.746;2022-10-26T10:40:14;2.15;;;1.00;;
71869;SDS011;59739;47.696;11.746;2022-10-26T10:43:11;2.40;;;0.85;;
71869;SDS011;59739;47.696;11.746;2022-10-26T10:45:38;2.58;;;1.02;;
71869;SDS011;59739;47.696;11.746;2022-10-26T10:53:43;1.98;;;0.70;;
71869;SDS011;59739;47.696;11.746;2022-10-26T11:01:33;6.03;;;1.05;;
71869;SDS011;59739;47.696;11.746;2022-10-26T11:07:24;2.60;;;0.60;;
71869;SDS011;59739;47.696;11.746;2022-10-26T11:09:52;5.07;;;0.80;;
71869;SDS011;59739;47.696;11.746;2022-10-26T11:12:26;1.92;;;1.00;;
71869;SDS011;59739;47.696;11.746;2022-10-26T11:14:59;1.35;;;1.00;;
71869;SDS011;59739;47.696;11.746;2022-10-26T11:18:16;6.22;;;2.42;;
71869;SDS011;59739;47.696;11.746;2022-10-26T11:21:03;6.20;;;4.88;;
71869;SDS011;59739;47.696;11.746;2022-10-26T11:23:46;3.42;;;1.63;;
71869;SDS011;59739;47.696;11.746;2022-10-26T11:26:40;2.53;;;0.93;;
71869;SDS011;59739;47.696;11.746;2022-10-26T11:32:21;3.13;;;1.42;;
71869;SDS011;59739;47.696;11.746;2022-10-26T11:38:27;4.38;;;1.30;;
71869;SDS011;59739;47.696;11.746;2022-10-26T11:44:10;3.25;;;1.20;;
71869;SDS011;59739;47.696;11.746;2022-10-26T11:46:55;2.15;;;1.02;;
71869;SDS011;59739;47.696;11.746;2022-10-26T11:49:36;5.70;;;1.40;;
71869;SDS011;59739;47.696;11.746;2022-10-26T11:52:32;1.83;;;1.20;;
71869;SDS011;59739;47.696;11.746;2022-10-26T11:55:07;3.38;;;1.30;;
71869;SDS011;59739;47.696;11.746;2022-10-26T11:57:35;2.70;;;1.20;;
71869;SDS011;59739;47.696;11.746;2022-10-26T12:00:03;2.28;;;1.00;;
71869;SDS011;59739;47.696;11.746;2022-10-26T12:02:42;1.80;;;1.05;;
71869;SDS011;59739;47.696;11.746;2022-10-26T12:05:21;1.75;;;1.30;;
71869;SDS011;59739;47.696;11.746;2022-10-26T12:08:17;3.00;;;1.08;;
71869;SDS011;59739;47.696;11.746;2022-10-26T12:10:51;2.50;;;1.20;;
71869;SDS011;59739;47.696;11.746;2022-10-26T12:13:53;5.10;;;1.35;;
71869;SDS011;59739;47.696;11.746;2022-10-26T12:16:34;3.53;;;1.50;;
71869;SDS011;59739;47.696;11.746;2022-10-26T12:19:31;9.13;;;1.42;;
71869;SDS011;59739;47.696;11.746;2022-10-26T12:22:08;5.35;;;2.20;;
71869;SDS011;59739;47.696;11.746;2022-10-26T12:24:42;1.58;;;1.13;;
71869;SDS011;59739;47.696;11.746;2022-10-26T12:27:28;3.25;;;1.25;;
71869;SDS011;59739;47.696;11.746;2022-10-26T12:38:00;2.05;;;1.20;;
71869;SDS011;59739;47.696;11.746;2022-10-26T12:40:45;1.60;;;1.10;;
71869;SDS011;59739;47.696;11.746;2022-10-26T12:45:38;2.90;;;1.13;;
71869;SDS011;59739;47.696;11.746;2022-10-26T12:53:49;2.13;;;1.15;;
71869;SDS011;59739;47.696;11.746;2022-10-26T12:56:25;1.75;;;1.27;;
71869;SDS011;59739;47.696;11.746;2022-10-26T12:59:05;3.58;;;1.48;;
71869;SDS011;59739;47.696;11.746;2022-10-26T13:04:38;6.47;;;1.42;;
71869;SDS011;59739;47.696;11.746;2022-10-26T13:07:33;3.45;;;1.70;;
71869;SDS011;59739;47.696;11.746;2022-10-26T13:12:47;2.70;;;1.52;;
71869;SDS011;59739;47.696;11.746;2022-10-26T13:15:27;2.42;;;1.48;;
71869;SDS011;59739;47.696;11.746;2022-10-26T13:20:50;2.40;;;1.50;;
71869;SDS011;59739;47.696;11.746;2022-10-26T13:23:37;1.50;;;1.30;;
71869;SDS011;59739;47.696;11.746;2022-10-26T13:31:09;2.88;;;1.20;;
71869;SDS011;59739;47.696;11.746;2022-10-26T13:34:09;6.43;;;1.67;;
71869;SDS011;59739;47.696;11.746;2022-10-26T13:39:31;4.95;;;1.60;;
71869;SDS011;59739;47.696;11.746;2022-10-26T13:42:02;7.47;;;3.63;;
71869;SDS011;59739;47.696;11.746;2022-10-26T13:44:37;8.40;;;4.45;;
71869;SDS011;59739;47.696;11.746;2022-10-26T13:47:21;8.25;;;4.57;;
71869;SDS011;59739;47.696;11.746;2022-10-26T13:49:53;6.38;;;4.47;;
71869;SDS011;59739;47.696;11.746;2022-10-26T13:52:44;9.40;;;5.78;;
71869;SDS011;59739;47.696;11.746;2022-10-26T13:55:23;11.93;;;7.50;;
71869;SDS011;59739;47.696;11.746;2022-10-26T14:01:01;16.02;;;8.25;;
71869;SDS011;59739;47.696;11.746;2022-10-26T14:03:36;10.23;;;3.85;;
71869;SDS011;59739;47.696;11.746;2022-10-26T14:06:03;6.95;;;3.20;;
71869;SDS011;59739;47.696;11.746;2022-10-26T14:08:39;4.50;;;1.85;;
71869;SDS011;59739;47.696;11.746;2022-10-26T14:11:07;17.55;;;8.93;;
71869;SDS011;59739;47.696;11.746;2022-10-26T14:13:37;13.40;;;6.70;;
71869;SDS011;59739;47.696;11.746;2022-10-26T14:16:06;8.98;;;4.03;;
71869;SDS011;59739;47.696;11.746;2022-10-26T14:18:35;6.78;;;3.50;;
71869;SDS011;59739;47.696;11.746;2022-10-26T14:21:06;6.90;;;2.58;;
71869;SDS011;59739;47.696;11.746;2022-10-26T14:23:56;5.57;;;1.80;;
71869;SDS011;59739;47.696;11.746;2022-10-26T14:26:28;5.07;;;1.73;;
71869;SDS011;59739;47.696;11.746;2022-10-26T14:29:03;4.63;;;1.45;;
71869;SDS011;59739;47.696;11.746;2022-10-26T14:31:43;4.15;;;1.85;;
71869;SDS011;59739;47.696;11.746;2022-10-26T14:34:10;5.47;;;2.58;;
71869;SDS011;59739;47.696;11.746;2022-10-26T14:42:03;4.63;;;2.55;;
71869;SDS011;59739;47.696;11.746;2022-10-26T14:44:37;3.60;;;2.90;;
71869;SDS011;59739;47.696;11.746;2022-10-26T14:47:03;4.15;;;2.60;;
71869;SDS011;59739;47.696;11.746;2022-10-26T14:49:36;6.82;;;2.85;;
71869;SDS011;59739;47.696;11.746;2022-10-26T14:52:09;5.30;;;2.55;;
71869;SDS011;59739;47.696;11.746;2022-10-26T14:54:42;5.28;;;4.45;;
71869;SDS011;59739;47.696;11.746;2022-10-26T14:57:30;4.30;;;2.22;;
71869;SDS011;59739;47.696;11.746;2022-10-26T15:00:12;6.88;;;2.47;;
71869;SDS011;59739;47.696;11.746;2022-10-26T15:02:49;4.35;;;2.55;;
71869;SDS011;59739;47.696;11.746;2022-10-26T15:07:56;5.03;;;2.40;;
71869;SDS011;59739;47.696;11.746;2022-10-26T15:16:14;6.50;;;2.20;;
71869;SDS011;59739;47.696;11.746;2022-10-26T15:18:48;6.82;;;3.03;;
71869;SDS011;59739;47.696;11.746;2022-10-26T15:21:24;5.55;;;2.33;;
71869;SDS011;59739;47.696;11.746;2022-10-26T15:23:52;5.22;;;2.70;;
71869;SDS011;59739;47.696;11.746;2022-10-26T15:26:19;4.78;;;2.65;;
71869;SDS011;59739;47.696;11.746;2022-10-26T15:28:46;7.20;;;3.20;;
71869;SDS011;59739;47.696;11.746;2022-10-26T15:33:46;7.57;;;3.33;;
71869;SDS011;59739;47.696;11.746;2022-10-26T15:36:31;6.07;;;3.25;;
71869;SDS011;59739;47.696;11.746;2022-10-26T15:38:59;6.38;;;3.42;;
71869;SDS011;59739;47.696;11.746;2022-10-26T15:41:29;4.05;;;2.55;;
71869;SDS011;59739;47.696;11.746;2022-10-26T15:43:59;9.60;;;3.30;;
71869;SDS011;59739;47.696;11.746;2022-10-26T15:46:34;6.72;;;4.15;;
71869;SDS011;59739;47.696;11.746;2022-10-26T15:49:40;4.95;;;3.38;;
71869;SDS011;59739;47.696;11.746;2022-10-26T15:52:07;7.15;;;4.53;;
71869;SDS011;59739;47.696;11.746;2022-10-26T15:54:33;6.07;;;4.18;;
71869;SDS011;59739;47.696;11.746;2022-10-26T15:57:00;5.25;;;2.97;;
71869;SDS011;59739;47.696;11.746;2022-10-26T15:59:29;6.32;;;3.80;;
71869;SDS011;59739;47.696;11.746;2022-10-26T16:01:55;5.28;;;2.95;;
71869;SDS011;59739;47.696;11.746;2022-10-26T16:04:21;7.13;;;3.30;;
71869;SDS011;59739;47.696;11.746;2022-10-26T16:06:50;6.03;;;2.55;;
71869;SDS011;59739;47.696;11.746;2022-10-26T16:09:17;6.47;;;2.72;;
71869;SDS011;59739;47.696;11.746;2022-10-26T16:11:43;6.00;;;2.60;;
71869;SDS011;59739;47.696;11.746;2022-10-26T16:14:10;5.35;;;2.70;;
71869;SDS011;59739;47.696;11.746;2022-10-26T16:16:37;7.18;;;3.20;;
71869;SDS011;59739;47.696;11.746;2022-10-26T16:19:04;9.38;;;2.83;;
71869;SDS011;59739;47.696;11.746;2022-10-26T16:21:30;6.05;;;2.78;;
71869;SDS011;59739;47.696;11.746;2022-10-26T16:23:56;12.82;;;3.33;;
71869;SDS011;59739;47.696;11.746;2022-10-26T16:26:22;5.93;;;3.30;;
71869;SDS011;59739;47.696;11.746;2022-10-26T16:28:49;5.93;;;3.00;;
71869;SDS011;59739;47.696;11.746;2022-10-26T16:31:17;4.85;;;2.78;;
71869;SDS011;59739;47.696;11.746;2022-10-26T16:33:44;8.05;;;2.78;;
71869;SDS011;59739;47.696;11.746;2022-10-26T16:36:11;6.80;;;3.65;;
71869;SDS011;59739;47.696;11.746;2022-10-26T16:38:37;7.47;;;3.20;;
71869;SDS011;59739;47.696;11.746;2022-10-26T16:41:08;6.53;;;2.85;;
71869;SDS011;59739;47.696;11.746;2022-10-26T16:43:37;7.88;;;3.33;;
71869;SDS011;59739;47.696;11.746;2022-10-26T16:46:06;7.95;;;4.00;;
71869;SDS011;59739;47.696;11.746;2022-10-26T16:48:39;8.43;;;3.95;;
71869;SDS011;59739;47.696;11.746;2022-10-26T16:51:08;6.45;;;4.00;;
71869;SDS011;59739;47.696;11.746;2022-10-26T16:53:51;10.07;;;4.80;;
71869;SDS011;59739;47.696;11.746;2022-10-26T16:56:20;8.98;;;4.20;;
71869;SDS011;59739;47.696;11.746;2022-10-26T16:58:48;9.68;;;4.85;;
71869;SDS011;59739;47.696;11.746;2022-10-26T17:01:15;10.38;;;5.00;;
71869;SDS011;59739;47.696;11.746;2022-10-26T17:03:44;9.38;;;3.88;;
71869;SDS011;59739;47.696;11.746;2022-10-26T17:06:14;6.63;;;3.45;;
71869;SDS011;59739;47.696;11.746;2022-10-26T17:08:41;7.93;;;4.07;;
71869;SDS011;59739;47.696;11.746;2022-10-26T17:11:12;8.07;;;4.00;;
71869;SDS011;59739;47.696;11.746;2022-10-26T17:13:41;7.13;;;3.78;;
71869;SDS011;59739;47.696;11.746;2022-10-26T17:16:12;5.95;;;3.53;;
71869;SDS011;59739;47.696;11.746;2022-10-26T17:18:47;9.38;;;3.63;;
71869;SDS011;59739;47.696;11.746;2022-10-26T17:21:17;6.82;;;3.28;;
71869;SDS011;59739;47.696;11.746;2022-10-26T17:23:51;8.30;;;3.30;;
71869;SDS011;59739;47.696;11.746;2022-10-26T17:26:17;8.63;;;3.25;;
71869;SDS011;59739;47.696;11.746;2022-10-26T17:28:43;6.55;;;4.00;;
71869;SDS011;59739;47.696;11.746;2022-10-26T17:31:11;7.90;;;3.70;;
71869;SDS011;59739;47.696;11.746;2022-10-26T17:33:40;7.80;;;3.90;;
71869;SDS011;59739;47.696;11.746;2022-10-26T17:36:08;7.15;;;3.83;;
71869;SDS011;59739;47.696;11.746;2022-10-26T17:38:37;7.18;;;3.78;;